createdAt,value
2023-04-18T00:00:43.323Z,99.90
2023-04-18T00:01:45.829Z,99.90
2023-04-18T00:02:48.211Z,99.90
2023-04-18T00:03:51.065Z,99.90
2023-04-18T00:04:54.567Z,99.90
2023-04-18T00:05:58.074Z,99.90
2023-04-18T00:07:00.998Z,99.90
2023-04-18T00:08:04.027Z,99.90
2023-04-18T00:09:06.413Z,99.90
2023-04-18T00:10:08.877Z,99.90
2023-04-18T00:11:11.213Z,99.90
2023-04-18T00:12:13.759Z,99.90
2023-04-18T00:13:18.475Z,99.90
2023-04-18T00:14:20.790Z,99.90
2023-04-18T00:15:23.010Z,99.90
2023-04-18T00:16:25.441Z,99.90
2023-04-18T00:17:28.279Z,99.90
2023-04-18T00:18:30.571Z,99.90
2023-04-18T00:19:34.286Z,99.90
2023-04-18T00:20:38.991Z,99.90
2023-04-18T00:21:44.976Z,99.90
2023-04-18T00:22:47.856Z,99.90
2023-04-18T00:23:50.126Z,99.90
2023-04-18T00:24:52.835Z,99.90
2023-04-18T00:25:55.190Z,99.90
2023-04-18T00:26:57.682Z,99.90
2023-04-18T00:28:00.127Z,99.90
2023-04-18T00:29:03.282Z,99.90
2023-04-18T00:30:06.822Z,99.90
2023-04-18T00:31:12.854Z,99.90
2023-04-18T00:32:16.483Z,99.90
2023-04-18T00:33:18.727Z,99.90
2023-04-18T00:34:20.988Z,99.90
2023-04-18T00:35:23.620Z,99.90
2023-04-18T00:36:27.132Z,99.90
2023-04-18T00:37:30.321Z,99.90
2023-04-18T00:38:32.640Z,99.90
2023-04-18T00:39:35.808Z,99.90
2023-04-18T00:40:38.873Z,99.90
2023-04-18T00:41:41.398Z,99.90
2023-04-18T00:42:43.964Z,99.90
2023-04-18T00:43:46.259Z,99.90
2023-04-18T00:44:49.025Z,99.90
2023-04-18T00:45:51.353Z,99.90
2023-04-18T00:46:53.669Z,99.90
2023-04-18T00:47:56.443Z,99.90
2023-04-18T00:48:58.933Z,99.90
2023-04-18T00:50:01.241Z,99.90
2023-04-18T00:51:03.569Z,99.90
2023-04-18T00:52:06.543Z,99.90
2023-04-18T00:53:10.849Z,99.90
2023-04-18T00:54:13.826Z,99.90
2023-04-18T00:55:16.645Z,99.90
2023-04-18T00:56:19.522Z,99.90
2023-04-18T00:57:22.382Z,99.90
2023-04-18T00:58:25.384Z,99.90
2023-04-18T00:59:27.639Z,99.90
2023-04-18T01:00:29.996Z,99.90
2023-04-18T01:01:33.690Z,99.90
2023-04-18T01:02:37.604Z,99.90
2023-04-18T01:03:41.118Z,99.90
2023-04-18T01:04:44.050Z,99.90
2023-04-18T01:05:46.611Z,99.90
2023-04-18T01:06:48.974Z,99.90
2023-04-18T01:07:52.190Z,99.90
2023-04-18T01:08:56.256Z,99.90
2023-04-18T01:10:02.189Z,99.90
2023-04-18T01:11:04.762Z,99.90
2023-04-18T01:12:07.055Z,99.90
2023-04-18T01:13:17.371Z,99.90
2023-04-18T01:14:20.553Z,99.90
2023-04-18T01:15:22.858Z,99.90
2023-04-18T01:16:27.856Z,99.90
2023-04-18T01:17:30.433Z,99.90
2023-04-18T01:18:35.190Z,99.90
2023-04-18T01:19:40.679Z,99.90
2023-04-18T01:20:48.215Z,99.90
2023-04-18T01:21:53.502Z,99.90
2023-04-18T01:22:58.202Z,99.90
2023-04-18T01:24:08.295Z,99.90
2023-04-18T01:25:10.861Z,99.90
2023-04-18T01:26:13.377Z,99.90
2023-04-18T01:27:15.804Z,99.90
2023-04-18T01:28:19.628Z,99.90
2023-04-18T01:29:21.893Z,99.90
2023-04-18T01:30:25.552Z,99.90
2023-04-18T01:31:27.880Z,99.90
2023-04-18T01:32:30.169Z,99.90
2023-04-18T01:33:32.661Z,99.90
2023-04-18T01:34:34.950Z,99.90
2023-04-18T01:35:41.366Z,99.90
2023-04-18T01:36:43.831Z,99.90
2023-04-18T01:37:47.391Z,99.90
2023-04-18T01:38:49.691Z,99.90
2023-04-18T01:39:51.953Z,99.90
2023-04-18T01:40:54.536Z,99.90
2023-04-18T01:41:57.671Z,99.90
2023-04-18T01:42:59.971Z,99.90
2023-04-18T01:44:02.298Z,99.90
2023-04-18T01:45:06.434Z,99.90
2023-04-18T01:46:09.159Z,99.90
2023-04-18T01:47:11.387Z,99.90
2023-04-18T01:48:13.688Z,99.90
2023-04-18T01:49:17.527Z,99.90
2023-04-18T01:50:19.962Z,99.90
2023-04-18T01:51:22.471Z,99.90
2023-04-18T01:52:24.752Z,99.90
2023-04-18T01:53:27.051Z,99.90
2023-04-18T01:54:29.625Z,99.90
2023-04-18T01:55:31.944Z,99.90
2023-04-18T01:56:34.811Z,99.90
2023-04-18T01:57:38.299Z,99.90
2023-04-18T01:58:41.681Z,99.90
2023-04-18T01:59:43.983Z,99.90
2023-04-18T02:00:46.330Z,99.90
2023-04-18T02:01:48.643Z,99.90
2023-04-18T02:02:51.213Z,99.90
2023-04-18T02:03:56.297Z,99.90
2023-04-18T02:04:58.699Z,99.90
2023-04-18T02:06:05.708Z,99.90
2023-04-18T02:07:08.139Z,99.90
2023-04-18T02:08:11.757Z,99.90
2023-04-18T02:09:13.996Z,99.90
2023-04-18T02:10:19.073Z,99.90
2023-04-18T02:11:21.346Z,99.90
2023-04-18T02:12:23.764Z,99.90
2023-04-18T02:13:26.073Z,99.90
2023-04-18T02:14:33.100Z,99.90
2023-04-18T02:15:36.197Z,99.90
2023-04-18T02:16:38.987Z,99.90
2023-04-18T02:17:41.828Z,99.90
2023-04-18T02:18:44.527Z,99.90
2023-04-18T02:19:51.231Z,99.90
2023-04-18T02:20:53.697Z,99.90
2023-04-18T02:21:57.606Z,99.90
2023-04-18T02:23:01.034Z,99.90
2023-04-18T02:24:05.201Z,99.90
2023-04-18T02:25:08.012Z,99.90
2023-04-18T02:26:10.286Z,99.90
2023-04-18T02:27:13.355Z,99.90
2023-04-18T02:28:15.829Z,99.90
2023-04-18T02:29:18.099Z,99.90
2023-04-18T02:30:20.478Z,99.90
2023-04-18T02:31:22.840Z,99.90
2023-04-18T02:32:25.165Z,99.90
2023-04-18T02:33:27.582Z,99.90
2023-04-18T02:34:29.906Z,99.90
2023-04-18T02:35:32.197Z,99.90
2023-04-18T02:36:34.621Z,99.90
2023-04-18T02:37:38.441Z,99.90
2023-04-18T02:38:40.724Z,99.90
2023-04-18T02:39:42.987Z,99.90
2023-04-18T02:40:45.750Z,99.90
2023-04-18T02:41:48.073Z,99.90
2023-04-18T02:42:50.458Z,99.90
2023-04-18T02:43:52.780Z,99.90
2023-04-18T02:44:55.759Z,99.90
2023-04-18T02:45:58.197Z,99.90
2023-04-18T02:47:00.462Z,99.90
2023-04-18T02:48:02.808Z,99.90
2023-04-18T02:49:07.416Z,99.90
2023-04-18T02:50:10.194Z,99.90
2023-04-18T02:51:13.057Z,99.90
2023-04-18T02:52:15.459Z,99.90
2023-04-18T02:53:17.826Z,99.90
2023-04-18T02:54:27.679Z,99.90
2023-04-18T02:55:36.691Z,99.90
2023-04-18T02:56:40.180Z,99.90
2023-04-18T02:57:54.621Z,99.90
2023-04-18T02:59:15.145Z,99.90
2023-04-18T03:00:34.654Z,99.90
2023-04-18T03:01:50.625Z,99.90
2023-04-18T03:02:55.521Z,99.90
2023-04-18T03:04:13.855Z,99.90
2023-04-18T03:05:23.971Z,99.90
2023-04-18T03:06:27.374Z,99.90
2023-04-18T03:07:30.971Z,99.90
2023-04-18T03:08:34.133Z,99.90
2023-04-18T03:09:36.562Z,99.90
2023-04-18T03:10:45.203Z,99.90
2023-04-18T03:11:48.015Z,99.90
2023-04-18T03:12:51.450Z,99.90
2023-04-18T03:13:54.974Z,99.90
2023-04-18T03:14:59.094Z,99.90
2023-04-18T03:16:02.739Z,99.90
2023-04-18T03:17:06.392Z,99.90
2023-04-18T03:18:14.786Z,99.90
2023-04-18T03:19:17.882Z,99.90
2023-04-18T03:20:20.668Z,99.90
2023-04-18T03:21:22.961Z,99.90
2023-04-18T03:22:25.899Z,99.90
2023-04-18T03:23:31.383Z,99.90
2023-04-18T03:24:35.096Z,99.90
2023-04-18T03:25:39.937Z,99.90
2023-04-18T03:26:42.350Z,99.90
2023-04-18T03:27:45.004Z,99.90
2023-04-18T03:28:49.956Z,99.90
2023-04-18T03:29:52.244Z,99.90
2023-04-18T03:30:54.744Z,99.90
2023-04-18T03:31:57.283Z,99.90
2023-04-18T03:32:59.639Z,99.90
2023-04-18T03:34:01.934Z,99.90
2023-04-18T03:35:04.380Z,99.90
2023-04-18T03:36:07.434Z,99.90
2023-04-18T03:37:09.801Z,99.90
2023-04-18T03:38:18.369Z,99.90
2023-04-18T03:39:20.639Z,99.90
2023-04-18T03:40:23.062Z,99.90
2023-04-18T03:41:28.226Z,99.90
2023-04-18T03:42:32.793Z,99.90
2023-04-18T03:43:35.106Z,99.90
2023-04-18T03:44:37.447Z,99.90
2023-04-18T03:45:40.074Z,99.90
2023-04-18T03:46:42.394Z,99.90
2023-04-18T03:47:46.568Z,99.90
2023-04-18T03:48:48.913Z,99.90
2023-04-18T03:49:51.251Z,99.90
2023-04-18T03:50:54.248Z,99.90
2023-04-18T03:51:56.505Z,99.90
2023-04-18T03:52:59.842Z,99.90
2023-04-18T03:54:05.480Z,99.90
2023-04-18T03:55:08.127Z,99.90
2023-04-18T03:56:10.695Z,99.90
2023-04-18T03:57:25.329Z,99.90
2023-04-18T03:58:27.611Z,99.90
2023-04-18T03:59:30.410Z,99.90
2023-04-18T04:00:32.656Z,99.90
2023-04-18T04:01:40.534Z,99.90
2023-04-18T04:02:43.183Z,99.90
2023-04-18T04:03:51.185Z,99.90
2023-04-18T04:04:53.808Z,99.90
2023-04-18T04:05:56.632Z,99.90
2023-04-18T04:06:59.704Z,99.90
2023-04-18T04:08:01.997Z,99.90
2023-04-18T04:09:04.433Z,99.90
2023-04-18T04:10:07.096Z,99.90
2023-04-18T04:11:09.454Z,99.90
2023-04-18T04:12:11.866Z,99.90
2023-04-18T04:13:14.109Z,99.90
2023-04-18T04:14:16.921Z,99.90
2023-04-18T04:15:21.451Z,99.90
2023-04-18T04:16:44.884Z,99.90
2023-04-18T04:17:51.285Z,99.90
2023-04-18T04:18:54.139Z,99.90
2023-04-18T04:20:00.271Z,99.90
2023-04-18T04:21:03.664Z,99.90
2023-04-18T04:22:17.548Z,99.90
2023-04-18T04:23:20.616Z,99.90
2023-04-18T04:24:23.315Z,99.90
2023-04-18T04:25:28.780Z,99.90
2023-04-18T04:26:35.703Z,99.90
2023-04-18T04:27:53.813Z,99.90
2023-04-18T04:28:57.795Z,99.90
2023-04-18T04:30:03.094Z,99.90
2023-04-18T04:31:06.897Z,99.90
2023-04-18T04:32:10.298Z,99.90
2023-04-18T04:33:14.009Z,99.90
2023-04-18T04:34:16.934Z,99.90
2023-04-18T04:35:19.611Z,99.90
2023-04-18T04:36:23.178Z,99.90
2023-04-18T04:37:28.135Z,99.90
2023-04-18T04:38:40.635Z,99.90
2023-04-18T04:39:43.340Z,99.90
2023-04-18T04:40:59.023Z,99.90
2023-04-18T04:42:04.475Z,99.90
2023-04-18T04:43:16.508Z,99.90
2023-04-18T04:44:22.390Z,99.90
2023-04-18T04:45:24.712Z,99.90
2023-04-18T04:46:30.358Z,99.90
2023-04-18T04:47:33.594Z,99.90
2023-04-18T04:48:35.978Z,99.90
2023-04-18T04:49:39.301Z,99.90
2023-04-18T04:50:41.912Z,99.90
2023-04-18T04:51:47.108Z,99.90
2023-04-18T04:52:49.946Z,99.90
2023-04-18T04:53:52.379Z,99.90
2023-04-18T04:54:54.770Z,99.90
2023-04-18T04:55:59.253Z,99.90
2023-04-18T04:57:02.247Z,99.90
2023-04-18T04:58:04.479Z,99.90
2023-04-18T04:59:17.607Z,99.90
2023-04-18T05:00:21.614Z,99.90
2023-04-18T05:01:24.619Z,99.90
2023-04-18T05:02:27.117Z,99.90
2023-04-18T05:03:29.590Z,99.90
2023-04-18T05:04:32.858Z,99.90
2023-04-18T05:05:35.281Z,99.90
2023-04-18T05:06:40.082Z,99.90
2023-04-18T05:07:42.688Z,99.90
2023-04-18T05:08:44.912Z,99.90
2023-04-18T05:09:47.228Z,99.90
2023-04-18T05:10:50.180Z,99.90
2023-04-18T05:11:52.405Z,99.90
2023-04-18T05:12:54.697Z,99.90
2023-04-18T05:13:56.994Z,99.90
2023-04-18T05:14:59.210Z,99.90
2023-04-18T05:16:01.945Z,99.90
2023-04-18T05:17:04.446Z,99.90
2023-04-18T05:18:07.134Z,99.90
2023-04-18T05:19:09.427Z,99.90
2023-04-18T05:20:11.764Z,99.90
2023-04-18T05:21:14.183Z,99.90
2023-04-18T05:22:16.484Z,99.90
2023-04-18T05:23:18.695Z,99.90
2023-04-18T05:24:20.986Z,99.90
2023-04-18T05:25:23.355Z,99.90
2023-04-18T05:26:25.730Z,99.90
2023-04-18T05:27:28.395Z,99.90
2023-04-18T05:28:30.899Z,99.90
2023-04-18T05:29:33.186Z,99.90
2023-04-18T05:30:35.579Z,99.90
2023-04-18T05:31:37.944Z,99.90
2023-04-18T05:32:40.424Z,99.90
2023-04-18T05:33:42.766Z,99.90
2023-04-18T05:34:45.098Z,99.90
2023-04-18T05:35:47.309Z,99.90
2023-04-18T05:36:49.656Z,99.90
2023-04-18T05:37:51.963Z,99.90
2023-04-18T05:38:54.197Z,99.90
2023-04-18T05:39:57.360Z,99.90
2023-04-18T05:41:00.526Z,99.90
2023-04-18T05:42:03.483Z,99.90
2023-04-18T05:43:06.226Z,99.90
2023-04-18T05:44:09.300Z,99.90
2023-04-18T05:45:11.895Z,99.90
2023-04-18T05:46:14.278Z,99.90
2023-04-18T05:47:16.687Z,99.90
2023-04-18T05:48:19.305Z,99.90
2023-04-18T05:49:22.150Z,99.90
2023-04-18T05:50:24.475Z,99.90
2023-04-18T05:51:28.892Z,99.90
2023-04-18T05:52:32.018Z,99.90
2023-04-18T05:53:34.259Z,99.90
2023-04-18T05:54:36.843Z,99.90
2023-04-18T05:55:40.978Z,99.90
2023-04-18T05:56:43.421Z,99.90
2023-04-18T05:57:46.107Z,99.90
2023-04-18T05:58:49.027Z,99.90
2023-04-18T05:59:51.315Z,99.90
2023-04-18T06:00:53.626Z,99.90
2023-04-18T06:01:56.006Z,99.90
2023-04-18T06:02:58.513Z,99.90
2023-04-18T06:04:01.130Z,99.90
2023-04-18T06:05:03.879Z,99.90
2023-04-18T06:06:06.280Z,99.90
2023-04-18T06:07:08.936Z,99.90
2023-04-18T06:08:11.316Z,99.90
2023-04-18T06:09:13.681Z,99.90
2023-04-18T06:10:16.287Z,99.90
2023-04-18T06:11:21.212Z,99.90
2023-04-18T06:12:23.937Z,99.90
2023-04-18T06:13:26.294Z,99.90
2023-04-18T06:14:29.083Z,99.90
2023-04-18T06:15:31.344Z,99.90
2023-04-18T06:16:33.653Z,99.90
2023-04-18T06:17:36.047Z,99.90
2023-04-18T06:18:38.420Z,99.90
2023-04-18T06:19:40.760Z,99.90
2023-04-18T06:20:44.323Z,99.90
2023-04-18T06:21:47.016Z,99.90
2023-04-18T06:22:49.332Z,99.90
2023-04-18T06:23:52.416Z,99.90
2023-04-18T06:24:55.951Z,99.90
2023-04-18T06:25:58.863Z,99.90
2023-04-18T06:27:01.940Z,99.90
2023-04-18T06:28:04.333Z,99.90
2023-04-18T06:29:06.635Z,99.90
2023-04-18T06:30:09.377Z,99.90
2023-04-18T06:31:11.619Z,99.90
2023-04-18T06:32:14.260Z,99.90
2023-04-18T06:33:16.520Z,99.90
2023-04-18T06:34:18.862Z,99.90
2023-04-18T06:35:21.147Z,99.90
2023-04-18T06:36:23.638Z,99.90
2023-04-18T06:37:26.011Z,99.90
2023-04-18T06:38:28.571Z,99.90
2023-04-18T06:39:30.848Z,99.90
2023-04-18T06:40:33.318Z,99.90
2023-04-18T06:41:35.667Z,99.90
2023-04-18T06:42:38.339Z,99.90
2023-04-18T06:43:49.116Z,99.90
2023-04-18T06:44:54.552Z,99.90
2023-04-18T06:45:57.096Z,99.90
2023-04-18T06:46:59.432Z,99.90
2023-04-18T06:48:04.025Z,99.90
2023-04-18T06:49:06.410Z,99.90
2023-04-18T06:50:09.485Z,99.90
2023-04-18T06:51:13.014Z,99.90
2023-04-18T06:52:15.304Z,99.90
2023-04-18T06:53:17.649Z,99.90
2023-04-18T06:54:20.496Z,99.90
2023-04-18T06:55:22.819Z,99.90
2023-04-18T06:56:25.176Z,99.90
2023-04-18T06:57:28.208Z,99.90
2023-04-18T06:58:30.495Z,99.90
2023-04-18T06:59:32.940Z,99.90
2023-04-18T07:00:35.302Z,99.90
2023-04-18T07:01:43.691Z,99.90
2023-04-18T07:02:46.624Z,99.90
2023-04-18T07:03:49.164Z,99.90
2023-04-18T07:04:51.827Z,99.90
2023-04-18T07:05:55.658Z,99.90
2023-04-18T07:06:57.967Z,99.90
2023-04-18T07:08:00.643Z,99.90
2023-04-18T07:09:03.182Z,99.90
2023-04-18T07:10:06.761Z,99.90
2023-04-18T07:11:09.198Z,99.90
2023-04-18T07:12:11.630Z,99.90
2023-04-18T07:13:13.984Z,99.90
2023-04-18T07:14:17.005Z,99.90
2023-04-18T07:15:19.324Z,99.90
2023-04-18T07:16:21.855Z,99.90
2023-04-18T07:17:24.331Z,99.90
2023-04-18T07:18:37.373Z,99.90
2023-04-18T07:19:41.568Z,99.90
2023-04-18T07:20:43.844Z,99.90
2023-04-18T07:21:46.253Z,99.90
2023-04-18T07:22:48.795Z,99.90
2023-04-18T07:23:51.091Z,99.90
2023-04-18T07:24:53.418Z,99.90
2023-04-18T07:25:55.696Z,99.90
2023-04-18T07:26:58.153Z,99.90
2023-04-18T07:28:00.411Z,99.90
2023-04-18T07:29:02.673Z,99.90
2023-04-18T07:30:05.526Z,99.90
2023-04-18T07:31:11.655Z,99.90
2023-04-18T07:32:14.186Z,99.90
2023-04-18T07:33:16.539Z,99.90
2023-04-18T07:34:18.812Z,99.90
2023-04-18T07:35:21.788Z,99.90
2023-04-18T07:36:24.290Z,99.90
2023-04-18T07:37:26.913Z,99.90
2023-04-18T07:38:29.174Z,99.90
2023-04-18T07:39:35.888Z,99.90
2023-04-18T07:40:38.496Z,99.90
2023-04-18T07:41:40.831Z,99.90
2023-04-18T07:42:43.782Z,99.90
2023-04-18T07:43:46.013Z,99.90
2023-04-18T07:44:49.626Z,99.90
2023-04-18T07:45:52.917Z,99.90
2023-04-18T07:46:55.296Z,99.90
2023-04-18T07:47:57.533Z,99.90
2023-04-18T07:49:00.144Z,99.90
2023-04-18T07:50:03.010Z,99.90
2023-04-18T07:51:05.405Z,99.90
2023-04-18T07:52:08.063Z,99.90
2023-04-18T07:53:10.399Z,99.90
2023-04-18T07:54:12.772Z,99.90
2023-04-18T07:55:15.086Z,99.90
2023-04-18T07:56:17.475Z,99.90
2023-04-18T07:57:19.810Z,99.90
2023-04-18T07:58:22.059Z,99.90
2023-04-18T07:59:24.562Z,99.90
2023-04-18T08:00:26.974Z,99.90
2023-04-18T08:01:29.367Z,99.90
2023-04-18T08:02:31.862Z,99.90
2023-04-18T08:03:36.621Z,99.90
2023-04-18T08:04:39.280Z,99.90
2023-04-18T08:05:42.998Z,99.90
2023-04-18T08:06:45.301Z,99.90
2023-04-18T08:07:47.599Z,99.90
2023-04-18T08:08:49.865Z,99.90
2023-04-18T08:09:52.433Z,99.90
2023-04-18T08:10:54.709Z,99.90
2023-04-18T08:11:57.976Z,99.90
2023-04-18T08:13:00.559Z,99.90
2023-04-18T08:14:02.755Z,99.90
2023-04-18T08:15:05.769Z,99.90
2023-04-18T08:16:08.882Z,99.90
2023-04-18T08:17:11.235Z,99.90
2023-04-18T08:18:13.606Z,99.90
2023-04-18T08:19:16.174Z,99.90
2023-04-18T08:20:18.559Z,99.90
2023-04-18T08:21:20.861Z,99.90
2023-04-18T08:22:23.171Z,99.90
2023-04-18T08:23:25.484Z,99.90
2023-04-18T08:24:28.166Z,99.90
2023-04-18T08:25:31.741Z,99.90
2023-04-18T08:26:34.104Z,99.90
2023-04-18T08:27:36.459Z,99.90
2023-04-18T08:28:39.586Z,99.90
2023-04-18T08:29:41.805Z,99.90
2023-04-18T08:30:48.728Z,99.90
2023-04-18T08:31:51.085Z,99.90
2023-04-18T08:32:53.494Z,99.90
2023-04-18T08:33:55.821Z,99.90
2023-04-18T08:34:58.167Z,99.90
2023-04-18T08:36:00.397Z,99.90
2023-04-18T08:37:03.053Z,99.90
2023-04-18T08:38:05.343Z,99.90
2023-04-18T08:39:07.946Z,99.90
2023-04-18T08:40:10.533Z,99.90
2023-04-18T08:41:12.784Z,99.90
2023-04-18T08:42:19.275Z,99.90
2023-04-18T08:43:21.617Z,99.90
2023-04-18T08:44:24.048Z,99.90
2023-04-18T08:45:26.974Z,99.90
2023-04-18T08:46:33.502Z,99.90
2023-04-18T08:47:35.829Z,99.90
2023-04-18T08:48:38.203Z,99.90
2023-04-18T08:49:41.198Z,99.90
2023-04-18T08:50:44.946Z,99.90
2023-04-18T08:51:49.522Z,99.90
2023-04-18T08:52:54.344Z,99.90
2023-04-18T08:53:57.363Z,99.90
2023-04-18T08:55:02.814Z,99.90
2023-04-18T08:56:05.576Z,99.90
2023-04-18T08:57:09.521Z,99.90
2023-04-18T08:58:12.536Z,99.90
2023-04-18T08:59:18.490Z,99.90
2023-04-18T09:00:20.920Z,99.90
2023-04-18T09:01:23.463Z,99.90
2023-04-18T09:02:42.778Z,99.90
2023-04-18T09:03:45.594Z,99.90
2023-04-18T09:04:57.480Z,99.90
2023-04-18T09:06:08.441Z,99.90
2023-04-18T09:07:16.170Z,99.90
2023-04-18T09:08:24.318Z,99.90
2023-04-18T09:09:29.385Z,99.90
2023-04-18T09:10:34.170Z,99.90
2023-04-18T09:11:36.404Z,99.90
2023-04-18T09:12:55.421Z,99.90
2023-04-18T09:14:02.497Z,99.90
2023-04-18T09:15:16.577Z,99.90
2023-04-18T09:16:22.525Z,99.90
2023-04-18T09:17:37.996Z,99.90
2023-04-18T09:18:42.444Z,99.90
2023-04-18T09:19:50.174Z,99.90
2023-04-18T09:20:53.417Z,99.90
2023-04-18T09:22:01.056Z,99.90
2023-04-18T09:23:11.145Z,99.90
2023-04-18T09:24:26.348Z,99.90
2023-04-18T09:25:29.987Z,99.90
2023-04-18T09:26:36.440Z,99.90
2023-04-18T09:27:38.767Z,99.90
2023-04-18T09:28:41.332Z,99.90
2023-04-18T09:29:47.110Z,99.90
2023-04-18T09:30:54.349Z,99.90
2023-04-18T09:32:01.246Z,99.90
2023-04-18T09:33:07.639Z,99.90
2023-04-18T09:34:24.890Z,99.90
2023-04-18T09:35:27.833Z,99.90
2023-04-18T09:36:32.368Z,99.90
2023-04-18T09:37:35.540Z,99.90
2023-04-18T09:38:41.239Z,99.90
2023-04-18T09:39:44.664Z,99.90
2023-04-18T09:40:46.956Z,99.90
2023-04-18T09:42:01.568Z,99.90
2023-04-18T09:43:19.436Z,99.90
2023-04-18T09:44:21.685Z,99.90
2023-04-18T09:45:25.090Z,99.90
2023-04-18T09:46:28.161Z,99.90
2023-04-18T09:47:31.183Z,99.90
2023-04-18T09:48:33.494Z,99.90
2023-04-18T09:49:35.809Z,99.90
2023-04-18T09:50:39.669Z,99.90
2023-04-18T09:51:43.750Z,99.90
2023-04-18T09:52:46.606Z,99.90
2023-04-18T09:53:50.326Z,99.90
2023-04-18T09:54:59.753Z,99.90
2023-04-18T09:56:03.475Z,99.90
2023-04-18T09:57:13.697Z,99.90
2023-04-18T09:58:20.637Z,99.90
2023-04-18T09:59:37.058Z,99.90
2023-04-18T10:00:40.397Z,99.90
2023-04-18T10:01:47.381Z,99.90
2023-04-18T10:03:08.215Z,99.90
2023-04-18T10:04:13.283Z,99.90
2023-04-18T10:05:19.569Z,99.90
2023-04-18T10:06:24.726Z,99.90
2023-04-18T10:07:27.786Z,99.90
2023-04-18T10:08:30.752Z,99.90
2023-04-18T10:09:34.516Z,99.90
2023-04-18T10:10:38.802Z,99.90
2023-04-18T10:11:41.812Z,99.50
2023-04-18T10:12:44.818Z,99.00
2023-04-18T10:13:48.671Z,99.00
2023-04-18T10:14:51.401Z,98.90
2023-04-18T10:15:54.922Z,98.90
2023-04-18T10:16:58.034Z,98.60
2023-04-18T10:18:05.815Z,98.30
2023-04-18T10:19:26.402Z,97.90
2023-04-18T10:20:30.921Z,97.70
2023-04-18T10:21:34.459Z,97.60
2023-04-18T10:22:36.796Z,97.60
2023-04-18T10:23:40.270Z,97.50
2023-04-18T10:24:56.301Z,97.40
2023-04-18T10:25:59.359Z,97.00
2023-04-18T10:27:02.128Z,96.60
2023-04-18T10:28:06.004Z,96.40
2023-04-18T10:29:09.785Z,96.30
2023-04-18T10:30:12.777Z,96.40
2023-04-18T10:31:16.608Z,95.70
2023-04-18T10:32:29.067Z,95.60
2023-04-18T10:33:37.171Z,95.50
2023-04-18T10:34:46.134Z,95.10
2023-04-18T10:36:10.325Z,95.90
2023-04-18T10:37:15.412Z,96.00
2023-04-18T10:38:17.712Z,95.80
2023-04-18T10:39:22.952Z,96.20
2023-04-18T10:40:35.033Z,96.40
2023-04-18T10:41:50.527Z,96.40
2023-04-18T10:42:53.102Z,96.60
2023-04-18T10:44:21.907Z,96.60
2023-04-18T10:45:25.475Z,97.00
2023-04-18T10:46:32.540Z,96.80
2023-04-18T10:47:35.517Z,96.90
2023-04-18T10:48:39.365Z,96.90
2023-04-18T10:49:53.645Z,97.30
2023-04-18T10:51:15.906Z,97.50
2023-04-18T10:52:18.180Z,97.80
2023-04-18T10:53:21.092Z,97.80
2023-04-18T10:54:30.837Z,97.70
2023-04-18T10:55:33.255Z,97.70
2023-04-18T10:56:35.955Z,97.80
2023-04-18T10:57:39.942Z,97.50
2023-04-18T10:58:47.472Z,97.30
2023-04-18T10:59:51.862Z,97.00
2023-04-18T11:00:54.506Z,96.90
2023-04-18T11:02:19.365Z,96.80
2023-04-18T11:03:33.050Z,96.70
2023-04-18T11:04:35.948Z,96.70
2023-04-18T11:05:38.337Z,96.60
2023-04-18T11:06:48.958Z,96.40
2023-04-18T11:07:51.607Z,96.40
2023-04-18T11:09:11.745Z,96.10
2023-04-18T11:10:20.634Z,95.90
2023-04-18T11:11:22.961Z,95.90
2023-04-18T11:12:28.790Z,95.60
2023-04-18T11:13:31.812Z,95.40
2023-04-18T11:14:46.170Z,95.50
2023-04-18T11:15:48.467Z,95.50
2023-04-18T11:16:51.031Z,95.90
2023-04-18T11:18:04.518Z,96.10
2023-04-18T11:19:21.463Z,96.40
2023-04-18T11:20:24.207Z,96.60
2023-04-18T11:21:30.309Z,96.60
2023-04-18T11:22:33.229Z,95.90
2023-04-18T11:23:35.662Z,95.90
2023-04-18T11:24:37.931Z,95.50
2023-04-18T11:25:40.607Z,95.20
2023-04-18T11:26:44.597Z,95.00
2023-04-18T11:27:48.399Z,94.80
2023-04-18T11:28:52.456Z,94.60
2023-04-18T11:29:56.117Z,94.60
2023-04-18T11:31:03.022Z,94.50
2023-04-18T11:32:07.721Z,94.70
2023-04-18T11:33:11.839Z,94.60
2023-04-18T11:34:14.529Z,94.70
2023-04-18T11:35:17.445Z,94.60
2023-04-18T11:36:19.860Z,94.50
2023-04-18T11:37:22.696Z,94.60
2023-04-18T11:38:29.739Z,94.70
2023-04-18T11:39:36.104Z,94.60
2023-04-18T11:40:38.438Z,94.70
2023-04-18T11:41:41.784Z,94.20
2023-04-18T11:42:44.090Z,94.30
2023-04-18T11:43:47.053Z,94.30
2023-04-18T11:44:50.002Z,94.70
2023-04-18T11:45:56.616Z,94.40
2023-04-18T11:46:58.986Z,93.40
2023-04-18T11:48:01.557Z,93.70
2023-04-18T11:49:03.916Z,94.30
2023-04-18T11:50:07.972Z,94.10
2023-04-18T11:51:35.604Z,93.70
2023-04-18T11:52:39.373Z,93.40
2023-04-18T11:53:42.153Z,93.30
2023-04-18T11:54:45.535Z,92.60
2023-04-18T11:55:55.830Z,92.30
2023-04-18T11:56:58.724Z,92.10
2023-04-18T11:58:02.217Z,91.50
2023-04-18T11:59:10.516Z,91.60
2023-04-18T12:00:13.454Z,91.60
2023-04-18T12:01:23.033Z,91.30
2023-04-18T12:02:49.992Z,91.20
2023-04-18T12:04:03.919Z,91.30
2023-04-18T12:05:07.121Z,91.50
2023-04-18T12:06:09.676Z,91.60
2023-04-18T12:07:11.948Z,91.70
2023-04-18T12:08:21.328Z,92.00
2023-04-18T12:09:27.417Z,92.00
2023-04-18T12:10:30.237Z,91.70
2023-04-18T12:11:32.578Z,91.60
2023-04-18T12:12:36.054Z,91.60
2023-04-18T12:13:38.750Z,91.90
2023-04-18T12:14:41.308Z,92.20
2023-04-18T12:15:45.516Z,92.20
2023-04-18T12:16:52.025Z,91.80
2023-04-18T12:18:02.394Z,91.80
2023-04-18T12:19:07.630Z,92.10
2023-04-18T12:20:11.585Z,92.30
2023-04-18T12:21:13.949Z,92.20
2023-04-18T12:22:16.892Z,92.10
2023-04-18T12:23:40.128Z,92.30
2023-04-18T12:24:43.405Z,92.40
2023-04-18T12:25:58.146Z,91.60
2023-04-18T12:27:00.431Z,91.50
2023-04-18T12:28:14.785Z,91.80
2023-04-18T12:29:17.874Z,92.00
2023-04-18T12:30:22.517Z,92.10
2023-04-18T12:31:24.847Z,92.10
2023-04-18T12:32:27.216Z,92.40
2023-04-18T12:33:30.790Z,92.60
2023-04-18T12:34:33.024Z,92.90
2023-04-18T12:35:35.673Z,93.20
2023-04-18T12:36:37.985Z,93.40
2023-04-18T12:37:40.323Z,93.70
2023-04-18T12:38:42.853Z,93.50
2023-04-18T12:39:45.140Z,93.40
2023-04-18T12:40:47.408Z,93.80
2023-04-18T12:41:49.996Z,94.20
2023-04-18T12:42:53.461Z,94.40
2023-04-18T12:43:55.878Z,94.60
2023-04-18T12:44:59.876Z,94.80
2023-04-18T12:46:02.182Z,94.80
2023-04-18T12:47:04.699Z,94.60
2023-04-18T12:48:07.545Z,94.10
2023-04-18T12:49:09.841Z,93.70
2023-04-18T12:50:22.026Z,93.30
2023-04-18T12:51:26.184Z,93.40
2023-04-18T12:52:28.811Z,93.40
2023-04-18T12:53:31.216Z,93.30
2023-04-18T12:54:36.759Z,93.20
2023-04-18T12:55:40.293Z,93.40
2023-04-18T12:56:42.531Z,93.80
2023-04-18T12:57:44.892Z,93.90
2023-04-18T12:58:47.447Z,93.90
2023-04-18T12:59:49.728Z,93.40
2023-04-18T13:00:52.122Z,93.60
2023-04-18T13:01:54.450Z,93.60
2023-04-18T13:02:57.211Z,93.50
2023-04-18T13:04:10.933Z,93.50
2023-04-18T13:05:17.337Z,93.80
2023-04-18T13:06:19.622Z,93.90
2023-04-18T13:07:21.960Z,94.20
2023-04-18T13:08:24.170Z,94.40
2023-04-18T13:09:26.996Z,94.70
2023-04-18T13:10:29.322Z,94.90
2023-04-18T13:11:31.573Z,95.00
2023-04-18T13:12:33.919Z,95.40
2023-04-18T13:13:37.620Z,95.70
2023-04-18T13:14:40.354Z,96.00
2023-04-18T13:15:42.808Z,96.50
2023-04-18T13:16:45.181Z,96.80
2023-04-18T13:17:48.633Z,97.00
2023-04-18T13:18:50.956Z,97.00
2023-04-18T13:19:53.548Z,96.80
2023-04-18T13:20:56.013Z,96.70
2023-04-18T13:21:59.185Z,96.80
2023-04-18T13:23:04.260Z,96.90
2023-04-18T13:24:07.120Z,97.10
2023-04-18T13:25:13.388Z,97.00
2023-04-18T13:26:15.752Z,97.00
2023-04-18T13:27:18.125Z,97.10
2023-04-18T13:28:20.423Z,97.50
2023-04-18T13:29:22.798Z,98.10
2023-04-18T13:30:25.362Z,97.80
2023-04-18T13:31:27.801Z,98.10
2023-04-18T13:32:30.380Z,98.30
2023-04-18T13:33:32.608Z,98.40
2023-04-18T13:34:39.659Z,98.40
2023-04-18T13:35:41.948Z,98.40
2023-04-18T13:36:44.227Z,98.40
2023-04-18T13:37:46.932Z,98.50
2023-04-18T13:38:49.889Z,98.40
2023-04-18T13:39:52.292Z,98.50
2023-04-18T13:41:08.521Z,98.60
2023-04-18T13:42:15.950Z,98.70
2023-04-18T13:43:18.531Z,98.80
2023-04-18T13:44:21.046Z,98.90
2023-04-18T13:45:23.335Z,98.90
2023-04-18T13:46:30.647Z,99.00
2023-04-18T13:47:33.034Z,99.10